CheckWX is a tool to help pilots better visualize weather data.  It is not intended as a substitute for an official pre-flight weather briefing.

05:21:42 UTC

KPVU METAR
Provo Municipal Airport
Provo, Utah, USA
Current

26 mins ago

KPVU 200456Z AUTO 23006KT 10SM FEW042 BKN050 OVC075 M06/M11 A2993 RMK AO2 SLP169 T10561111 FZRANO
Observed
Feb-20 @ 04:56 UTC
Wind
  • 230° at 6 KTS
Visibility
16,093 meters
Flight Rules
VFR
Cloud Levels
  • Few at 4,200' AGL
  • Broken at 5,000' AGL
  • Overcast at 7,500' AGL
Temperature
-6°C / 21°F
Dewpoint
-11°C / 12°F
Humidity
68%
Altimeter
29.93" Hg
Pressure
1016.9 hPa
Previous

1 hour ago

KPVU 200356Z AUTO VRB04KT 10SM FEW042 SCT060 OVC075 M05/M12 A2994 RMK AO2 SLP176 T10501122 FZRANO
Observed
Feb-20 @ 03:56 UTC
Wind
  • Variable at 4 KTS
Visibility
16,093 meters
Flight Rules
VFR
Cloud Levels
  • Few at 4,200' AGL
  • Scattered at 6,000' AGL
  • Overcast at 7,500' AGL
Temperature
-5°C / 23°F
Dewpoint
-12°C / 10°F
Humidity
58%
Altimeter
29.94" Hg
Pressure
1017.6 hPa
Previous

2 hours ago

KPVU 200256Z 36005KT 10SM BKN045 OVC065 M05/M12 A2994 RMK AO2 SLP177 60000 T10501122 55000
Observed
Feb-20 @ 02:56 UTC
Wind
  • 360° at 5 KTS
Visibility
16,093 meters
Flight Rules
VFR
Cloud Levels
  • Broken at 4,500' AGL
  • Overcast at 6,500' AGL
Temperature
-5°C / 23°F
Dewpoint
-12°C / 10°F
Humidity
58%
Altimeter
29.94" Hg
Pressure
1017.7 hPa